Terminal Aerodrome Forecast
Issued by NWS North Platte, NE

Home | Current Version | Previous Version | Text Only | Print | Product List | Glossary Off
Versions: 1 2 3 4 5 6 7 8 9 10 11 12 13 14 15 16 17 18 19 20 21 22

000
FTUS43 KLBF 221500 AAA
TAFVTN
TAF AMD
KVTN 221523Z 2215/2312 29011KT P6SM BKN060
     FM221700 30015G20KT P6SM SCT020 BKN050
     FM221900 31018G25KT P6SM SCT015 OVC025
     FM230100 32017G26KT 3SM -SN BR OVC008
     FM230600 32020G28KT 1SM -SN BLSN OVC007=

USA.gov is the U.S. government's official web portal to all federal, state and local government web resources and services.